sensor_id;sensor_type;location;lat;lon;timestamp;P1;durP1;ratioP1;P2;durP2;ratioP2
8652;SDS011;4364;52.426;9.424;2023-03-01T00:02:10;20.37;;;12.67;;
8652;SDS011;4364;52.426;9.424;2023-03-01T00:04:36;19.97;;;12.70;;
8652;SDS011;4364;52.426;9.424;2023-03-01T00:07:03;17.57;;;12.53;;
8652;SDS011;4364;52.426;9.424;2023-03-01T00:09:29;19.40;;;12.10;;
8652;SDS011;4364;52.426;9.424;2023-03-01T00:11:56;20.43;;;12.77;;
8652;SDS011;4364;52.426;9.424;2023-03-01T00:14:22;20.40;;;12.77;;
8652;SDS011;4364;52.426;9.424;2023-03-01T00:16:49;18.97;;;12.33;;
8652;SDS011;4364;52.426;9.424;2023-03-01T00:19:17;17.77;;;11.77;;
8652;SDS011;4364;52.426;9.424;2023-03-01T00:21:44;15.90;;;11.37;;
8652;SDS011;4364;52.426;9.424;2023-03-01T00:24:11;18.50;;;12.20;;
8652;SDS011;4364;52.426;9.424;2023-03-01T00:26:38;16.13;;;12.57;;
8652;SDS011;4364;52.426;9.424;2023-03-01T00:29:05;18.80;;;12.83;;
8652;SDS011;4364;52.426;9.424;2023-03-01T00:31:32;16.77;;;11.37;;
8652;SDS011;4364;52.426;9.424;2023-03-01T00:34:00;23.37;;;13.60;;
8652;SDS011;4364;52.426;9.424;2023-03-01T00:36:29;23.73;;;14.37;;
8652;SDS011;4364;52.426;9.424;2023-03-01T00:39:00;20.93;;;14.30;;
8652;SDS011;4364;52.426;9.424;2023-03-01T00:41:27;24.73;;;14.57;;
8652;SDS011;4364;52.426;9.424;2023-03-01T00:43:54;22.60;;;14.43;;
8652;SDS011;4364;52.426;9.424;2023-03-01T00:46:22;21.00;;;13.60;;
8652;SDS011;4364;52.426;9.424;2023-03-01T00:48:51;22.33;;;13.63;;
8652;SDS011;4364;52.426;9.424;2023-03-01T00:51:19;17.80;;;12.50;;
8652;SDS011;4364;52.426;9.424;2023-03-01T00:53:50;21.37;;;12.63;;
8652;SDS011;4364;52.426;9.424;2023-03-01T00:56:17;16.40;;;12.07;;
8652;SDS011;4364;52.426;9.424;2023-03-01T00:58:44;18.67;;;12.37;;
8652;SDS011;4364;52.426;9.424;2023-03-01T01:01:15;18.70;;;12.90;;
8652;SDS011;4364;52.426;9.424;2023-03-01T01:06:16;17.40;;;11.67;;
8652;SDS011;4364;52.426;9.424;2023-03-01T01:08:50;21.50;;;12.50;;
8652;SDS011;4364;52.426;9.424;2023-03-01T01:11:18;16.80;;;11.80;;
8652;SDS011;4364;52.426;9.424;2023-03-01T01:13:45;16.17;;;10.90;;
8652;SDS011;4364;52.426;9.424;2023-03-01T01:16:13;16.57;;;11.50;;
8652;SDS011;4364;52.426;9.424;2023-03-01T01:18:41;17.33;;;11.50;;
8652;SDS011;4364;52.426;9.424;2023-03-01T01:21:09;17.13;;;10.67;;
8652;SDS011;4364;52.426;9.424;2023-03-01T01:23:38;17.53;;;11.60;;
8652;SDS011;4364;52.426;9.424;2023-03-01T01:26:07;16.80;;;11.03;;
8652;SDS011;4364;52.426;9.424;2023-03-01T01:28:35;17.13;;;11.17;;
8652;SDS011;4364;52.426;9.424;2023-03-01T01:31:02;17.13;;;10.97;;
8652;SDS011;4364;52.426;9.424;2023-03-01T01:33:29;17.10;;;11.20;;
8652;SDS011;4364;52.426;9.424;2023-03-01T01:35:55;18.07;;;11.67;;
8652;SDS011;4364;52.426;9.424;2023-03-01T01:38:22;14.00;;;10.50;;
8652;SDS011;4364;52.426;9.424;2023-03-01T01:40:49;15.10;;;10.53;;
8652;SDS011;4364;52.426;9.424;2023-03-01T01:43:18;16.77;;;11.50;;
8652;SDS011;4364;52.426;9.424;2023-03-01T01:45:52;16.97;;;11.10;;
8652;SDS011;4364;52.426;9.424;2023-03-01T01:48:22;17.73;;;11.20;;
8652;SDS011;4364;52.426;9.424;2023-03-01T01:51:07;17.83;;;10.60;;
8652;SDS011;4364;52.426;9.424;2023-03-01T01:53:37;16.67;;;10.33;;
8652;SDS011;4364;52.426;9.424;2023-03-01T01:56:06;15.73;;;11.37;;
8652;SDS011;4364;52.426;9.424;2023-03-01T01:58:35;15.27;;;10.60;;
8652;SDS011;4364;52.426;9.424;2023-03-01T02:01:02;16.27;;;10.43;;
8652;SDS011;4364;52.426;9.424;2023-03-01T02:03:31;17.00;;;10.53;;
8652;SDS011;4364;52.426;9.424;2023-03-01T02:06:04;15.67;;;10.10;;
8652;SDS011;4364;52.426;9.424;2023-03-01T02:08:38;13.77;;;9.80;;
8652;SDS011;4364;52.426;9.424;2023-03-01T02:11:08;14.13;;;9.80;;
8652;SDS011;4364;52.426;9.424;2023-03-01T02:13:36;17.47;;;11.03;;
8652;SDS011;4364;52.426;9.424;2023-03-01T02:16:10;16.57;;;11.53;;
8652;SDS011;4364;52.426;9.424;2023-03-01T02:18:40;22.80;;;12.43;;
8652;SDS011;4364;52.426;9.424;2023-03-01T02:21:29;15.77;;;11.43;;
8652;SDS011;4364;52.426;9.424;2023-03-01T02:23:58;18.07;;;11.70;;
8652;SDS011;4364;52.426;9.424;2023-03-01T02:26:34;13.83;;;10.27;;
8652;SDS011;4364;52.426;9.424;2023-03-01T02:29:26;17.70;;;10.97;;
8652;SDS011;4364;52.426;9.424;2023-03-01T02:31:54;15.67;;;10.07;;
8652;SDS011;4364;52.426;9.424;2023-03-01T02:34:25;16.10;;;10.10;;
8652;SDS011;4364;52.426;9.424;2023-03-01T02:39:22;16.27;;;10.30;;
8652;SDS011;4364;52.426;9.424;2023-03-01T02:41:52;13.00;;;9.53;;
8652;SDS011;4364;52.426;9.424;2023-03-01T02:44:22;14.03;;;9.50;;
8652;SDS011;4364;52.426;9.424;2023-03-01T02:46:50;12.87;;;8.57;;
8652;SDS011;4364;52.426;9.424;2023-03-01T02:49:24;14.27;;;9.57;;
8652;SDS011;4364;52.426;9.424;2023-03-01T02:55:08;15.07;;;9.97;;
8652;SDS011;4364;52.426;9.424;2023-03-01T02:57:40;17.07;;;9.63;;
8652;SDS011;4364;52.426;9.424;2023-03-01T03:00:13;16.00;;;10.30;;
8652;SDS011;4364;52.426;9.424;2023-03-01T03:02:51;17.13;;;10.47;;
8652;SDS011;4364;52.426;9.424;2023-03-01T03:05:22;15.53;;;9.97;;
8652;SDS011;4364;52.426;9.424;2023-03-01T03:07:56;15.87;;;10.67;;
8652;SDS011;4364;52.426;9.424;2023-03-01T03:10:26;17.07;;;11.17;;
8652;SDS011;4364;52.426;9.424;2023-03-01T03:12:57;14.50;;;9.40;;
8652;SDS011;4364;52.426;9.424;2023-03-01T03:15:45;13.57;;;9.20;;
8652;SDS011;4364;52.426;9.424;2023-03-01T03:18:13;13.00;;;8.73;;
8652;SDS011;4364;52.426;9.424;2023-03-01T03:20:41;14.07;;;9.60;;
8652;SDS011;4364;52.426;9.424;2023-03-01T03:23:09;15.13;;;9.07;;
8652;SDS011;4364;52.426;9.424;2023-03-01T03:25:36;13.83;;;10.03;;
8652;SDS011;4364;52.426;9.424;2023-03-01T03:28:05;13.33;;;9.50;;
8652;SDS011;4364;52.426;9.424;2023-03-01T03:30:37;14.23;;;9.60;;
8652;SDS011;4364;52.426;9.424;2023-03-01T03:33:07;15.23;;;9.20;;
8652;SDS011;4364;52.426;9.424;2023-03-01T03:35:40;13.73;;;9.17;;
8652;SDS011;4364;52.426;9.424;2023-03-01T03:38:09;12.97;;;9.27;;
8652;SDS011;4364;52.426;9.424;2023-03-01T03:40:43;15.57;;;9.27;;
8652;SDS011;4364;52.426;9.424;2023-03-01T03:43:17;14.77;;;9.57;;
8652;SDS011;4364;52.426;9.424;2023-03-01T03:45:48;15.57;;;9.80;;
8652;SDS011;4364;52.426;9.424;2023-03-01T03:48:16;15.43;;;10.33;;
8652;SDS011;4364;52.426;9.424;2023-03-01T03:50:47;15.50;;;10.20;;
8652;SDS011;4364;52.426;9.424;2023-03-01T03:53:15;13.97;;;9.63;;
8652;SDS011;4364;52.426;9.424;2023-03-01T03:55:42;15.63;;;9.77;;
8652;SDS011;4364;52.426;9.424;2023-03-01T03:58:11;15.10;;;9.77;;
8652;SDS011;4364;52.426;9.424;2023-03-01T04:00:39;16.67;;;10.10;;
8652;SDS011;4364;52.426;9.424;2023-03-01T04:03:08;13.20;;;8.77;;
8652;SDS011;4364;52.426;9.424;2023-03-01T04:05:36;16.43;;;9.97;;
8652;SDS011;4364;52.426;9.424;2023-03-01T04:08:04;14.30;;;8.60;;
8652;SDS011;4364;52.426;9.424;2023-03-01T04:10:35;15.17;;;9.40;;
8652;SDS011;4364;52.426;9.424;2023-03-01T04:13:04;13.80;;;9.37;;
8652;SDS011;4364;52.426;9.424;2023-03-01T04:15:32;13.87;;;9.63;;
8652;SDS011;4364;52.426;9.424;2023-03-01T04:18:01;12.60;;;9.20;;
8652;SDS011;4364;52.426;9.424;2023-03-01T04:20:30;13.90;;;9.00;;
8652;SDS011;4364;52.426;9.424;2023-03-01T04:23:04;15.30;;;9.30;;
8652;SDS011;4364;52.426;9.424;2023-03-01T04:25:45;12.90;;;9.33;;
8652;SDS011;4364;52.426;9.424;2023-03-01T04:28:29;14.67;;;8.87;;
8652;SDS011;4364;52.426;9.424;2023-03-01T04:31:02;15.40;;;9.70;;
8652;SDS011;4364;52.426;9.424;2023-03-01T04:33:40;12.77;;;9.27;;
8652;SDS011;4364;52.426;9.424;2023-03-01T04:36:08;15.27;;;9.07;;
8652;SDS011;4364;52.426;9.424;2023-03-01T04:38:36;12.40;;;8.40;;
8652;SDS011;4364;52.426;9.424;2023-03-01T04:41:05;12.80;;;9.10;;
8652;SDS011;4364;52.426;9.424;2023-03-01T04:43:36;15.40;;;9.73;;
8652;SDS011;4364;52.426;9.424;2023-03-01T04:46:04;13.67;;;9.43;;
8652;SDS011;4364;52.426;9.424;2023-03-01T04:48:35;13.53;;;9.20;;
8652;SDS011;4364;52.426;9.424;2023-03-01T04:51:03;14.23;;;8.90;;
8652;SDS011;4364;52.426;9.424;2023-03-01T04:53:30;15.33;;;9.83;;
8652;SDS011;4364;52.426;9.424;2023-03-01T04:55:56;14.90;;;8.67;;
8652;SDS011;4364;52.426;9.424;2023-03-01T04:58:23;13.97;;;9.10;;
8652;SDS011;4364;52.426;9.424;2023-03-01T05:00:51;14.90;;;9.10;;
8652;SDS011;4364;52.426;9.424;2023-03-01T05:03:18;14.20;;;9.13;;
8652;SDS011;4364;52.426;9.424;2023-03-01T05:05:46;16.70;;;9.77;;
8652;SDS011;4364;52.426;9.424;2023-03-01T05:08:15;15.07;;;9.00;;
8652;SDS011;4364;52.426;9.424;2023-03-01T05:10:45;14.67;;;9.03;;
8652;SDS011;4364;52.426;9.424;2023-03-01T05:13:14;14.90;;;8.27;;
8652;SDS011;4364;52.426;9.424;2023-03-01T05:15:56;12.80;;;8.80;;
8652;SDS011;4364;52.426;9.424;2023-03-01T05:18:26;14.07;;;9.40;;
8652;SDS011;4364;52.426;9.424;2023-03-01T05:20:55;13.93;;;8.77;;
8652;SDS011;4364;52.426;9.424;2023-03-01T05:23:27;15.43;;;9.10;;
8652;SDS011;4364;52.426;9.424;2023-03-01T05:25:53;13.47;;;8.93;;
8652;SDS011;4364;52.426;9.424;2023-03-01T05:28:21;14.43;;;8.53;;
8652;SDS011;4364;52.426;9.424;2023-03-01T05:30:47;16.33;;;9.50;;
8652;SDS011;4364;52.426;9.424;2023-03-01T05:33:13;17.43;;;9.87;;
8652;SDS011;4364;52.426;9.424;2023-03-01T05:35:40;14.13;;;8.83;;
8652;SDS011;4364;52.426;9.424;2023-03-01T05:38:09;17.10;;;9.13;;
8652;SDS011;4364;52.426;9.424;2023-03-01T05:40:40;14.67;;;9.70;;
8652;SDS011;4364;52.426;9.424;2023-03-01T05:43:12;16.77;;;9.03;;
8652;SDS011;4364;52.426;9.424;2023-03-01T05:45:40;14.50;;;9.03;;
8652;SDS011;4364;52.426;9.424;2023-03-01T05:48:08;14.93;;;9.77;;
8652;SDS011;4364;52.426;9.424;2023-03-01T05:50:37;14.70;;;9.43;;
8652;SDS011;4364;52.426;9.424;2023-03-01T05:53:06;18.70;;;10.73;;
8652;SDS011;4364;52.426;9.424;2023-03-01T05:55:36;15.90;;;10.00;;
8652;SDS011;4364;52.426;9.424;2023-03-01T05:58:04;15.63;;;9.53;;
8652;SDS011;4364;52.426;9.424;2023-03-01T06:00:33;14.60;;;9.77;;
8652;SDS011;4364;52.426;9.424;2023-03-01T06:03:00;18.73;;;11.37;;
8652;SDS011;4364;52.426;9.424;2023-03-01T06:05:27;18.40;;;10.33;;
8652;SDS011;4364;52.426;9.424;2023-03-01T06:07:54;16.70;;;10.53;;
8652;SDS011;4364;52.426;9.424;2023-03-01T06:10:21;18.10;;;10.60;;
8652;SDS011;4364;52.426;9.424;2023-03-01T06:12:48;23.50;;;11.37;;
8652;SDS011;4364;52.426;9.424;2023-03-01T06:15:15;18.10;;;11.23;;
8652;SDS011;4364;52.426;9.424;2023-03-01T06:17:43;15.27;;;10.20;;
8652;SDS011;4364;52.426;9.424;2023-03-01T06:20:12;15.77;;;10.27;;
8652;SDS011;4364;52.426;9.424;2023-03-01T06:22:41;17.57;;;10.67;;
8652;SDS011;4364;52.426;9.424;2023-03-01T06:25:09;17.70;;;11.40;;
8652;SDS011;4364;52.426;9.424;2023-03-01T06:27:38;21.03;;;11.97;;
8652;SDS011;4364;52.426;9.424;2023-03-01T06:30:06;24.97;;;13.93;;
8652;SDS011;4364;52.426;9.424;2023-03-01T06:32:34;23.37;;;14.10;;
8652;SDS011;4364;52.426;9.424;2023-03-01T06:35:02;20.97;;;13.87;;
8652;SDS011;4364;52.426;9.424;2023-03-01T06:37:30;19.13;;;12.60;;
8652;SDS011;4364;52.426;9.424;2023-03-01T06:39:56;21.23;;;12.37;;
8652;SDS011;4364;52.426;9.424;2023-03-01T06:42:23;24.47;;;13.77;;
8652;SDS011;4364;52.426;9.424;2023-03-01T06:44:49;30.23;;;16.50;;
8652;SDS011;4364;52.426;9.424;2023-03-01T06:47:16;26.67;;;15.63;;
8652;SDS011;4364;52.426;9.424;2023-03-01T06:49:42;23.03;;;13.67;;
8652;SDS011;4364;52.426;9.424;2023-03-01T06:52:08;18.13;;;11.63;;
8652;SDS011;4364;52.426;9.424;2023-03-01T06:54:35;17.10;;;11.47;;
8652;SDS011;4364;52.426;9.424;2023-03-01T06:57:01;21.40;;;11.57;;
8652;SDS011;4364;52.426;9.424;2023-03-01T06:59:28;24.27;;;11.30;;
8652;SDS011;4364;52.426;9.424;2023-03-01T07:01:55;19.87;;;11.57;;
8652;SDS011;4364;52.426;9.424;2023-03-01T07:04:21;23.47;;;12.67;;
8652;SDS011;4364;52.426;9.424;2023-03-01T07:06:48;20.17;;;11.30;;
8652;SDS011;4364;52.426;9.424;2023-03-01T07:09:24;21.33;;;11.40;;
8652;SDS011;4364;52.426;9.424;2023-03-01T07:11:50;23.77;;;11.97;;
8652;SDS011;4364;52.426;9.424;2023-03-01T07:14:17;21.17;;;13.13;;
8652;SDS011;4364;52.426;9.424;2023-03-01T07:16:43;21.83;;;12.73;;
8652;SDS011;4364;52.426;9.424;2023-03-01T07:19:10;21.00;;;13.00;;
8652;SDS011;4364;52.426;9.424;2023-03-01T07:21:36;19.80;;;12.20;;
8652;SDS011;4364;52.426;9.424;2023-03-01T07:24:05;19.57;;;12.50;;
8652;SDS011;4364;52.426;9.424;2023-03-01T07:26:33;24.67;;;13.07;;
8652;SDS011;4364;52.426;9.424;2023-03-01T07:29:00;23.40;;;12.57;;
8652;SDS011;4364;52.426;9.424;2023-03-01T07:31:27;23.03;;;12.93;;
8652;SDS011;4364;52.426;9.424;2023-03-01T07:33:56;24.37;;;12.60;;
8652;SDS011;4364;52.426;9.424;2023-03-01T07:36:23;21.00;;;12.97;;
8652;SDS011;4364;52.426;9.424;2023-03-01T07:38:50;23.30;;;13.33;;
8652;SDS011;4364;52.426;9.424;2023-03-01T07:41:17;24.70;;;13.83;;
8652;SDS011;4364;52.426;9.424;2023-03-01T07:43:43;21.93;;;13.37;;
8652;SDS011;4364;52.426;9.424;2023-03-01T07:46:10;21.47;;;13.70;;
8652;SDS011;4364;52.426;9.424;2023-03-01T07:48:37;23.57;;;13.50;;
8652;SDS011;4364;52.426;9.424;2023-03-01T07:51:04;23.33;;;13.93;;
8652;SDS011;4364;52.426;9.424;2023-03-01T07:53:32;22.07;;;13.10;;
8652;SDS011;4364;52.426;9.424;2023-03-01T07:56:01;23.33;;;13.67;;
8652;SDS011;4364;52.426;9.424;2023-03-01T07:58:28;21.90;;;13.40;;
8652;SDS011;4364;52.426;9.424;2023-03-01T08:00:55;22.17;;;13.10;;
8652;SDS011;4364;52.426;9.424;2023-03-01T08:03:21;24.33;;;14.17;;
8652;SDS011;4364;52.426;9.424;2023-03-01T08:05:48;20.10;;;13.13;;
8652;SDS011;4364;52.426;9.424;2023-03-01T08:08:14;20.50;;;12.97;;
8652;SDS011;4364;52.426;9.424;2023-03-01T08:10:43;22.80;;;13.17;;
8652;SDS011;4364;52.426;9.424;2023-03-01T08:13:09;20.57;;;13.10;;
8652;SDS011;4364;52.426;9.424;2023-03-01T08:15:36;20.10;;;12.27;;
8652;SDS011;4364;52.426;9.424;2023-03-01T08:18:02;21.23;;;12.83;;
8652;SDS011;4364;52.426;9.424;2023-03-01T08:20:29;21.60;;;13.17;;
8652;SDS011;4364;52.426;9.424;2023-03-01T08:22:57;23.03;;;12.53;;
8652;SDS011;4364;52.426;9.424;2023-03-01T08:25:24;22.47;;;13.03;;
8652;SDS011;4364;52.426;9.424;2023-03-01T08:27:50;18.73;;;12.30;;
8652;SDS011;4364;52.426;9.424;2023-03-01T08:30:17;20.00;;;11.57;;
8652;SDS011;4364;52.426;9.424;2023-03-01T08:32:44;18.77;;;11.33;;
8652;SDS011;4364;52.426;9.424;2023-03-01T08:35:11;16.93;;;12.17;;
8652;SDS011;4364;52.426;9.424;2023-03-01T08:37:37;19.97;;;12.37;;
8652;SDS011;4364;52.426;9.424;2023-03-01T08:40:04;18.17;;;11.07;;
8652;SDS011;4364;52.426;9.424;2023-03-01T08:42:36;18.07;;;11.17;;
8652;SDS011;4364;52.426;9.424;2023-03-01T08:45:03;17.47;;;11.40;;
8652;SDS011;4364;52.426;9.424;2023-03-01T08:47:30;17.40;;;10.63;;
8652;SDS011;4364;52.426;9.424;2023-03-01T08:49:56;16.77;;;10.40;;
8652;SDS011;4364;52.426;9.424;2023-03-01T08:52:23;16.37;;;10.00;;
8652;SDS011;4364;52.426;9.424;2023-03-01T08:54:50;14.87;;;10.47;;
8652;SDS011;4364;52.426;9.424;2023-03-01T08:57:17;18.50;;;10.57;;
8652;SDS011;4364;52.426;9.424;2023-03-01T08:59:43;18.47;;;10.03;;
8652;SDS011;4364;52.426;9.424;2023-03-01T09:02:15;14.43;;;9.67;;
8652;SDS011;4364;52.426;9.424;2023-03-01T09:04:44;17.57;;;10.10;;
8652;SDS011;4364;52.426;9.424;2023-03-01T09:07:10;16.30;;;9.93;;
8652;SDS011;4364;52.426;9.424;2023-03-01T09:09:37;14.77;;;8.83;;
8652;SDS011;4364;52.426;9.424;2023-03-01T09:12:05;13.77;;;9.53;;
8652;SDS011;4364;52.426;9.424;2023-03-01T09:14:31;14.23;;;9.90;;
8652;SDS011;4364;52.426;9.424;2023-03-01T09:16:58;14.83;;;9.80;;
8652;SDS011;4364;52.426;9.424;2023-03-01T09:19:29;14.33;;;9.37;;
8652;SDS011;4364;52.426;9.424;2023-03-01T09:21:55;15.00;;;9.47;;
8652;SDS011;4364;52.426;9.424;2023-03-01T09:24:22;13.77;;;8.90;;
8652;SDS011;4364;52.426;9.424;2023-03-01T09:26:52;14.63;;;8.77;;
8652;SDS011;4364;52.426;9.424;2023-03-01T09:29:19;15.30;;;9.90;;
8652;SDS011;4364;52.426;9.424;2023-03-01T09:31:47;16.50;;;9.73;;
8652;SDS011;4364;52.426;9.424;2023-03-01T09:34:13;11.77;;;8.70;;
8652;SDS011;4364;52.426;9.424;2023-03-01T09:36:42;13.83;;;7.93;;
8652;SDS011;4364;52.426;9.424;2023-03-01T09:39:08;15.20;;;8.53;;
8652;SDS011;4364;52.426;9.424;2023-03-01T09:41:54;12.90;;;8.10;;
8652;SDS011;4364;52.426;9.424;2023-03-01T09:47:20;12.70;;;8.40;;
8652;SDS011;4364;52.426;9.424;2023-03-01T09:52:45;15.07;;;8.10;;
8652;SDS011;4364;52.426;9.424;2023-03-01T09:55:17;12.13;;;7.53;;
8652;SDS011;4364;52.426;9.424;2023-03-01T09:57:52;11.83;;;7.53;;
8652;SDS011;4364;52.426;9.424;2023-03-01T10:03:26;13.27;;;7.30;;
8652;SDS011;4364;52.426;9.424;2023-03-01T10:08:41;13.13;;;7.67;;
8652;SDS011;4364;52.426;9.424;2023-03-01T10:11:19;12.97;;;7.30;;
8652;SDS011;4364;52.426;9.424;2023-03-01T10:13:54;9.97;;;6.90;;
8652;SDS011;4364;52.426;9.424;2023-03-01T10:16:24;9.47;;;6.77;;
8652;SDS011;4364;52.426;9.424;2023-03-01T10:19:14;8.03;;;6.10;;
8652;SDS011;4364;52.426;9.424;2023-03-01T10:21:46;11.93;;;6.47;;
8652;SDS011;4364;52.426;9.424;2023-03-01T10:24:17;18.30;;;6.40;;
8652;SDS011;4364;52.426;9.424;2023-03-01T10:26:48;7.87;;;6.00;;
8652;SDS011;4364;52.426;9.424;2023-03-01T10:29:23;9.50;;;6.23;;
8652;SDS011;4364;52.426;9.424;2023-03-01T10:31:54;11.27;;;6.40;;
8652;SDS011;4364;52.426;9.424;2023-03-01T10:34:28;9.60;;;6.40;;
8652;SDS011;4364;52.426;9.424;2023-03-01T10:36:58;10.30;;;6.10;;
8652;SDS011;4364;52.426;9.424;2023-03-01T10:39:36;10.90;;;6.37;;
8652;SDS011;4364;52.426;9.424;2023-03-01T10:42:03;9.07;;;6.10;;
8652;SDS011;4364;52.426;9.424;2023-03-01T10:44:42;11.00;;;5.90;;
8652;SDS011;4364;52.426;9.424;2023-03-01T10:47:18;9.47;;;5.83;;
8652;SDS011;4364;52.426;9.424;2023-03-01T10:50:17;6.80;;;4.50;;
8652;SDS011;4364;52.426;9.424;2023-03-01T10:52:59;7.83;;;4.67;;
8652;SDS011;4364;52.426;9.424;2023-03-01T11:00:57;8.10;;;4.80;;
8652;SDS011;4364;52.426;9.424;2023-03-01T11:03:33;7.63;;;4.60;;
8652;SDS011;4364;52.426;9.424;2023-03-01T11:08:30;7.17;;;3.67;;
8652;SDS011;4364;52.426;9.424;2023-03-01T11:13:50;8.07;;;4.60;;
8652;SDS011;4364;52.426;9.424;2023-03-01T11:17:02;7.03;;;4.07;;
8652;SDS011;4364;52.426;9.424;2023-03-01T11:19:28;6.33;;;4.10;;
8652;SDS011;4364;52.426;9.424;2023-03-01T11:22:29;8.43;;;4.53;;
8652;SDS011;4364;52.426;9.424;2023-03-01T11:24:51;8.03;;;4.57;;
8652;SDS011;4364;52.426;9.424;2023-03-01T11:27:36;7.37;;;4.67;;
8652;SDS011;4364;52.426;9.424;2023-03-01T11:30:09;6.80;;;4.50;;
8652;SDS011;4364;52.426;9.424;2023-03-01T11:32:40;9.67;;;4.67;;
8652;SDS011;4364;52.426;9.424;2023-03-01T11:35:15;7.10;;;4.63;;
8652;SDS011;4364;52.426;9.424;2023-03-01T11:40:35;8.50;;;4.27;;
8652;SDS011;4364;52.426;9.424;2023-03-01T11:43:17;9.47;;;4.37;;
8652;SDS011;4364;52.426;9.424;2023-03-01T11:46:06;8.80;;;4.57;;
8652;SDS011;4364;52.426;9.424;2023-03-01T11:48:56;6.80;;;4.50;;
8652;SDS011;4364;52.426;9.424;2023-03-01T11:51:48;8.20;;;4.70;;
8652;SDS011;4364;52.426;9.424;2023-03-01T12:02:32;6.83;;;4.37;;
8652;SDS011;4364;52.426;9.424;2023-03-01T12:05:20;6.23;;;4.20;;
8652;SDS011;4364;52.426;9.424;2023-03-01T12:10:44;4.70;;;3.70;;
8652;SDS011;4364;52.426;9.424;2023-03-01T12:13:31;6.73;;;4.07;;
8652;SDS011;4364;52.426;9.424;2023-03-01T12:21:54;4.07;;;3.37;;
8652;SDS011;4364;52.426;9.424;2023-03-01T12:24:35;5.77;;;3.60;;
8652;SDS011;4364;52.426;9.424;2023-03-01T12:29:42;7.00;;;3.50;;
8652;SDS011;4364;52.426;9.424;2023-03-01T12:46:38;5.83;;;3.50;;
8652;SDS011;4364;52.426;9.424;2023-03-01T12:49:20;7.13;;;3.53;;
8652;SDS011;4364;52.426;9.424;2023-03-01T12:51:56;7.97;;;3.33;;
8652;SDS011;4364;52.426;9.424;2023-03-01T12:54:28;5.63;;;4.00;;
8652;SDS011;4364;52.426;9.424;2023-03-01T12:57:00;4.60;;;3.10;;
8652;SDS011;4364;52.426;9.424;2023-03-01T13:00:10;3.77;;;2.70;;
8652;SDS011;4364;52.426;9.424;2023-03-01T13:02:46;4.40;;;3.00;;
8652;SDS011;4364;52.426;9.424;2023-03-01T13:05:20;3.63;;;2.80;;
8652;SDS011;4364;52.426;9.424;2023-03-01T13:07:55;5.10;;;3.20;;
8652;SDS011;4364;52.426;9.424;2023-03-01T13:10:29;6.57;;;3.60;;
8652;SDS011;4364;52.426;9.424;2023-03-01T13:13:08;5.53;;;3.40;;
8652;SDS011;4364;52.426;9.424;2023-03-01T13:15:47;3.93;;;3.20;;
8652;SDS011;4364;52.426;9.424;2023-03-01T13:23:29;5.27;;;3.30;;
8652;SDS011;4364;52.426;9.424;2023-03-01T13:31:02;6.90;;;3.17;;
8652;SDS011;4364;52.426;9.424;2023-03-01T13:35:58;4.47;;;3.20;;
8652;SDS011;4364;52.426;9.424;2023-03-01T13:38:41;4.60;;;3.10;;
8652;SDS011;4364;52.426;9.424;2023-03-01T13:44:11;5.93;;;3.30;;
8652;SDS011;4364;52.426;9.424;2023-03-01T13:46:43;4.13;;;3.40;;
8652;SDS011;4364;52.426;9.424;2023-03-01T13:49:13;4.23;;;2.73;;
8652;SDS011;4364;52.426;9.424;2023-03-01T13:51:42;5.50;;;3.13;;
8652;SDS011;4364;52.426;9.424;2023-03-01T13:54:13;8.17;;;4.00;;
8652;SDS011;4364;52.426;9.424;2023-03-01T13:56:41;5.43;;;3.40;;
8652;SDS011;4364;52.426;9.424;2023-03-01T13:59:17;4.83;;;3.37;;
8652;SDS011;4364;52.426;9.424;2023-03-01T14:01:51;4.53;;;3.30;;
8652;SDS011;4364;52.426;9.424;2023-03-01T14:04:30;10.13;;;4.07;;
8652;SDS011;4364;52.426;9.424;2023-03-01T14:07:08;4.37;;;3.50;;
8652;SDS011;4364;52.426;9.424;2023-03-01T14:09:43;4.57;;;3.57;;
8652;SDS011;4364;52.426;9.424;2023-03-01T14:12:14;5.33;;;3.53;;
8652;SDS011;4364;52.426;9.424;2023-03-01T14:17:32;4.10;;;3.10;;
8652;SDS011;4364;52.426;9.424;2023-03-01T14:20:23;5.50;;;3.40;;
8652;SDS011;4364;52.426;9.424;2023-03-01T14:22:55;7.03;;;3.30;;
8652;SDS011;4364;52.426;9.424;2023-03-01T14:30:35;3.87;;;3.20;;
8652;SDS011;4364;52.426;9.424;2023-03-01T14:33:06;5.20;;;3.20;;
8652;SDS011;4364;52.426;9.424;2023-03-01T14:35:51;4.40;;;3.50;;
8652;SDS011;4364;52.426;9.424;2023-03-01T14:38:29;6.30;;;3.47;;
8652;SDS011;4364;52.426;9.424;2023-03-01T14:41:25;5.67;;;3.10;;
8652;SDS011;4364;52.426;9.424;2023-03-01T14:43:58;3.80;;;2.80;;
8652;SDS011;4364;52.426;9.424;2023-03-01T14:46:29;4.57;;;2.97;;
8652;SDS011;4364;52.426;9.424;2023-03-01T14:49:04;4.40;;;2.70;;
8652;SDS011;4364;52.426;9.424;2023-03-01T14:51:45;5.20;;;3.30;;
8652;SDS011;4364;52.426;9.424;2023-03-01T14:56:59;5.07;;;2.90;;
8652;SDS011;4364;52.426;9.424;2023-03-01T14:59:29;8.77;;;3.37;;
8652;SDS011;4364;52.426;9.424;2023-03-01T15:01:56;5.37;;;3.27;;
8652;SDS011;4364;52.426;9.424;2023-03-01T15:04:24;6.00;;;3.40;;
8652;SDS011;4364;52.426;9.424;2023-03-01T15:06:54;4.87;;;3.10;;
8652;SDS011;4364;52.426;9.424;2023-03-01T15:09:22;4.43;;;2.90;;
8652;SDS011;4364;52.426;9.424;2023-03-01T15:11:49;4.80;;;3.37;;
8652;SDS011;4364;52.426;9.424;2023-03-01T15:19:46;5.93;;;3.30;;
8652;SDS011;4364;52.426;9.424;2023-03-01T15:22:16;6.97;;;3.37;;
8652;SDS011;4364;52.426;9.424;2023-03-01T15:24:46;5.37;;;3.17;;
8652;SDS011;4364;52.426;9.424;2023-03-01T15:27:19;3.87;;;3.07;;
8652;SDS011;4364;52.426;9.424;2023-03-01T15:29:55;4.07;;;2.90;;
8652;SDS011;4364;52.426;9.424;2023-03-01T15:32:30;5.03;;;3.30;;
8652;SDS011;4364;52.426;9.424;2023-03-01T15:35:01;3.50;;;2.80;;
8652;SDS011;4364;52.426;9.424;2023-03-01T15:38:23;3.97;;;3.30;;
8652;SDS011;4364;52.426;9.424;2023-03-01T15:40:56;4.70;;;3.13;;
8652;SDS011;4364;52.426;9.424;2023-03-01T15:49:02;4.43;;;3.07;;
8652;SDS011;4364;52.426;9.424;2023-03-01T15:51:33;6.10;;;3.63;;
8652;SDS011;4364;52.426;9.424;2023-03-01T15:54:05;4.20;;;3.40;;
8652;SDS011;4364;52.426;9.424;2023-03-01T15:56:37;5.57;;;3.63;;
8652;SDS011;4364;52.426;9.424;2023-03-01T15:59:04;5.70;;;3.30;;
8652;SDS011;4364;52.426;9.424;2023-03-01T16:01:30;4.30;;;2.90;;
8652;SDS011;4364;52.426;9.424;2023-03-01T16:04:00;5.90;;;3.47;;
8652;SDS011;4364;52.426;9.424;2023-03-01T16:06:27;4.73;;;3.27;;
8652;SDS011;4364;52.426;9.424;2023-03-01T16:08:54;4.37;;;3.33;;
8652;SDS011;4364;52.426;9.424;2023-03-01T16:11:20;5.60;;;3.50;;
8652;SDS011;4364;52.426;9.424;2023-03-01T16:13:47;6.27;;;3.27;;
8652;SDS011;4364;52.426;9.424;2023-03-01T16:16:16;6.27;;;3.47;;
8652;SDS011;4364;52.426;9.424;2023-03-01T16:18:43;3.63;;;2.97;;
8652;SDS011;4364;52.426;9.424;2023-03-01T16:21:21;6.23;;;4.00;;
8652;SDS011;4364;52.426;9.424;2023-03-01T16:23:51;4.77;;;3.20;;
8652;SDS011;4364;52.426;9.424;2023-03-01T16:26:18;5.37;;;3.37;;
8652;SDS011;4364;52.426;9.424;2023-03-01T16:28:46;5.37;;;3.27;;
8652;SDS011;4364;52.426;9.424;2023-03-01T16:31:16;4.47;;;2.90;;
8652;SDS011;4364;52.426;9.424;2023-03-01T16:33:45;4.87;;;3.10;;
8652;SDS011;4364;52.426;9.424;2023-03-01T16:36:16;5.30;;;3.33;;
8652;SDS011;4364;52.426;9.424;2023-03-01T16:38:44;5.97;;;3.60;;
8652;SDS011;4364;52.426;9.424;2023-03-01T16:41:15;5.77;;;3.57;;
8652;SDS011;4364;52.426;9.424;2023-03-01T16:43:44;5.87;;;3.43;;
8652;SDS011;4364;52.426;9.424;2023-03-01T16:46:14;7.40;;;4.40;;
8652;SDS011;4364;52.426;9.424;2023-03-01T16:48:42;5.90;;;3.97;;
8652;SDS011;4364;52.426;9.424;2023-03-01T16:51:09;7.17;;;4.10;;
8652;SDS011;4364;52.426;9.424;2023-03-01T16:53:37;6.20;;;4.10;;
8652;SDS011;4364;52.426;9.424;2023-03-01T16:56:04;7.53;;;4.50;;
8652;SDS011;4364;52.426;9.424;2023-03-01T16:58:34;7.67;;;4.20;;
8652;SDS011;4364;52.426;9.424;2023-03-01T17:01:09;6.43;;;4.13;;
8652;SDS011;4364;52.426;9.424;2023-03-01T17:03:39;6.63;;;4.10;;
8652;SDS011;4364;52.426;9.424;2023-03-01T17:06:07;7.80;;;4.43;;
8652;SDS011;4364;52.426;9.424;2023-03-01T17:08:36;9.37;;;4.73;;